sensor_id;sensor_type;location;lat;lon;timestamp;P1;durP1;ratioP1;P2;durP2;ratioP2
37203;SDS011;23098;48.054;10.636;2023-04-15T00:01:44;7.50;;;3.05;;
37203;SDS011;23098;48.054;10.636;2023-04-15T00:04:10;5.63;;;2.70;;
37203;SDS011;23098;48.054;10.636;2023-04-15T00:06:36;9.48;;;3.10;;
37203;SDS011;23098;48.054;10.636;2023-04-15T00:09:04;4.85;;;2.80;;
37203;SDS011;23098;48.054;10.636;2023-04-15T00:11:30;3.40;;;2.58;;
37203;SDS011;23098;48.054;10.636;2023-04-15T00:13:56;5.30;;;2.40;;
37203;SDS011;23098;48.054;10.636;2023-04-15T00:16:22;4.70;;;2.47;;
37203;SDS011;23098;48.054;10.636;2023-04-15T00:18:48;3.97;;;2.30;;
37203;SDS011;23098;48.054;10.636;2023-04-15T00:21:14;5.10;;;2.38;;
37203;SDS011;23098;48.054;10.636;2023-04-15T00:23:40;4.90;;;2.50;;
37203;SDS011;23098;48.054;10.636;2023-04-15T00:26:05;5.43;;;2.72;;
37203;SDS011;23098;48.054;10.636;2023-04-15T00:28:34;5.72;;;2.42;;
37203;SDS011;23098;48.054;10.636;2023-04-15T00:31:00;3.75;;;2.47;;
37203;SDS011;23098;48.054;10.636;2023-04-15T00:33:27;9.38;;;3.15;;
37203;SDS011;23098;48.054;10.636;2023-04-15T00:35:54;7.20;;;3.00;;
37203;SDS011;23098;48.054;10.636;2023-04-15T00:38:19;9.18;;;3.30;;
37203;SDS011;23098;48.054;10.636;2023-04-15T00:40:45;4.90;;;2.95;;
37203;SDS011;23098;48.054;10.636;2023-04-15T00:43:10;4.40;;;2.88;;
37203;SDS011;23098;48.054;10.636;2023-04-15T00:45:37;3.75;;;2.50;;
37203;SDS011;23098;48.054;10.636;2023-04-15T00:48:02;4.05;;;2.42;;
37203;SDS011;23098;48.054;10.636;2023-04-15T00:50:35;4.85;;;2.58;;
37203;SDS011;23098;48.054;10.636;2023-04-15T00:53:00;4.47;;;2.58;;
37203;SDS011;23098;48.054;10.636;2023-04-15T00:55:26;4.65;;;2.63;;
37203;SDS011;23098;48.054;10.636;2023-04-15T00:57:53;5.68;;;2.30;;
37203;SDS011;23098;48.054;10.636;2023-04-15T01:00:19;4.28;;;2.60;;
37203;SDS011;23098;48.054;10.636;2023-04-15T01:02:45;4.95;;;2.40;;
37203;SDS011;23098;48.054;10.636;2023-04-15T01:05:11;3.20;;;2.22;;
37203;SDS011;23098;48.054;10.636;2023-04-15T01:07:38;4.70;;;2.80;;
37203;SDS011;23098;48.054;10.636;2023-04-15T01:10:03;5.65;;;2.50;;
37203;SDS011;23098;48.054;10.636;2023-04-15T01:12:32;5.97;;;2.47;;
37203;SDS011;23098;48.054;10.636;2023-04-15T01:14:58;6.70;;;2.75;;
37203;SDS011;23098;48.054;10.636;2023-04-15T01:17:25;6.22;;;2.53;;
37203;SDS011;23098;48.054;10.636;2023-04-15T01:19:53;4.53;;;2.38;;
37203;SDS011;23098;48.054;10.636;2023-04-15T01:22:20;4.38;;;2.50;;
37203;SDS011;23098;48.054;10.636;2023-04-15T01:24:54;8.48;;;2.95;;
37203;SDS011;23098;48.054;10.636;2023-04-15T01:27:30;5.10;;;3.03;;
37203;SDS011;23098;48.054;10.636;2023-04-15T01:29:56;10.13;;;2.88;;
37203;SDS011;23098;48.054;10.636;2023-04-15T01:32:22;7.03;;;2.55;;
37203;SDS011;23098;48.054;10.636;2023-04-15T01:34:48;3.47;;;2.55;;
37203;SDS011;23098;48.054;10.636;2023-04-15T01:37:13;4.32;;;2.67;;
37203;SDS011;23098;48.054;10.636;2023-04-15T01:39:39;6.43;;;2.78;;
37203;SDS011;23098;48.054;10.636;2023-04-15T01:42:05;5.85;;;2.90;;
37203;SDS011;23098;48.054;10.636;2023-04-15T01:44:30;4.57;;;2.50;;
37203;SDS011;23098;48.054;10.636;2023-04-15T01:46:56;4.90;;;2.40;;
37203;SDS011;23098;48.054;10.636;2023-04-15T01:49:22;7.45;;;2.92;;
37203;SDS011;23098;48.054;10.636;2023-04-15T01:51:47;6.10;;;2.70;;
37203;SDS011;23098;48.054;10.636;2023-04-15T01:54:13;7.35;;;2.80;;
37203;SDS011;23098;48.054;10.636;2023-04-15T01:56:40;9.30;;;2.70;;
37203;SDS011;23098;48.054;10.636;2023-04-15T01:59:06;6.10;;;2.80;;
37203;SDS011;23098;48.054;10.636;2023-04-15T02:01:31;3.60;;;2.72;;
37203;SDS011;23098;48.054;10.636;2023-04-15T02:03:58;6.82;;;2.58;;
37203;SDS011;23098;48.054;10.636;2023-04-15T02:06:23;4.57;;;2.30;;
37203;SDS011;23098;48.054;10.636;2023-04-15T02:08:49;5.07;;;2.25;;
37203;SDS011;23098;48.054;10.636;2023-04-15T02:11:14;3.70;;;2.35;;
37203;SDS011;23098;48.054;10.636;2023-04-15T02:13:40;5.43;;;2.50;;
37203;SDS011;23098;48.054;10.636;2023-04-15T02:16:16;5.40;;;2.38;;
37203;SDS011;23098;48.054;10.636;2023-04-15T02:18:43;5.95;;;2.72;;
37203;SDS011;23098;48.054;10.636;2023-04-15T02:21:11;5.03;;;2.50;;
37203;SDS011;23098;48.054;10.636;2023-04-15T02:23:36;4.53;;;2.55;;
37203;SDS011;23098;48.054;10.636;2023-04-15T02:26:02;4.70;;;2.33;;
37203;SDS011;23098;48.054;10.636;2023-04-15T02:28:27;3.13;;;2.17;;
37203;SDS011;23098;48.054;10.636;2023-04-15T02:30:53;3.53;;;2.17;;
37203;SDS011;23098;48.054;10.636;2023-04-15T02:33:21;6.20;;;2.50;;
37203;SDS011;23098;48.054;10.636;2023-04-15T02:35:47;4.28;;;2.55;;
37203;SDS011;23098;48.054;10.636;2023-04-15T02:38:12;5.30;;;2.55;;
37203;SDS011;23098;48.054;10.636;2023-04-15T02:40:40;5.70;;;2.40;;
37203;SDS011;23098;48.054;10.636;2023-04-15T02:43:06;5.53;;;2.25;;
37203;SDS011;23098;48.054;10.636;2023-04-15T02:45:32;6.75;;;2.78;;
37203;SDS011;23098;48.054;10.636;2023-04-15T02:47:58;5.32;;;3.03;;
37203;SDS011;23098;48.054;10.636;2023-04-15T02:50:27;3.15;;;2.30;;
37203;SDS011;23098;48.054;10.636;2023-04-15T02:52:53;7.25;;;2.72;;
37203;SDS011;23098;48.054;10.636;2023-04-15T02:55:20;4.38;;;2.50;;
37203;SDS011;23098;48.054;10.636;2023-04-15T02:57:46;4.50;;;2.60;;
37203;SDS011;23098;48.054;10.636;2023-04-15T03:00:12;4.82;;;2.67;;
37203;SDS011;23098;48.054;10.636;2023-04-15T03:02:38;5.93;;;2.33;;
37203;SDS011;23098;48.054;10.636;2023-04-15T03:05:04;4.45;;;2.63;;
37203;SDS011;23098;48.054;10.636;2023-04-15T03:07:30;6.13;;;2.38;;
37203;SDS011;23098;48.054;10.636;2023-04-15T03:09:55;6.68;;;2.88;;
37203;SDS011;23098;48.054;10.636;2023-04-15T03:12:21;4.75;;;2.63;;
37203;SDS011;23098;48.054;10.636;2023-04-15T03:14:47;3.90;;;2.63;;
37203;SDS011;23098;48.054;10.636;2023-04-15T03:17:13;8.20;;;2.72;;
37203;SDS011;23098;48.054;10.636;2023-04-15T03:19:39;6.22;;;2.40;;
37203;SDS011;23098;48.054;10.636;2023-04-15T03:22:06;4.90;;;2.72;;
37203;SDS011;23098;48.054;10.636;2023-04-15T03:24:31;7.55;;;2.50;;
37203;SDS011;23098;48.054;10.636;2023-04-15T03:26:57;6.07;;;2.85;;
37203;SDS011;23098;48.054;10.636;2023-04-15T03:29:23;3.65;;;2.47;;
37203;SDS011;23098;48.054;10.636;2023-04-15T03:34:16;6.22;;;2.97;;
37203;SDS011;23098;48.054;10.636;2023-04-15T03:36:41;2.67;;;2.22;;
37203;SDS011;23098;48.054;10.636;2023-04-15T03:39:07;6.20;;;2.50;;
37203;SDS011;23098;48.054;10.636;2023-04-15T03:41:32;6.18;;;3.03;;
37203;SDS011;23098;48.054;10.636;2023-04-15T03:43:58;4.97;;;2.97;;
37203;SDS011;23098;48.054;10.636;2023-04-15T03:46:27;6.82;;;3.28;;
37203;SDS011;23098;48.054;10.636;2023-04-15T03:48:53;5.82;;;2.47;;
37203;SDS011;23098;48.054;10.636;2023-04-15T03:51:18;4.85;;;2.75;;
37203;SDS011;23098;48.054;10.636;2023-04-15T03:53:44;9.20;;;2.50;;
37203;SDS011;23098;48.054;10.636;2023-04-15T03:56:10;4.13;;;2.42;;
37203;SDS011;23098;48.054;10.636;2023-04-15T03:58:35;5.25;;;2.42;;
37203;SDS011;23098;48.054;10.636;2023-04-15T04:01:01;6.78;;;2.78;;
37203;SDS011;23098;48.054;10.636;2023-04-15T04:03:26;6.15;;;2.40;;
37203;SDS011;23098;48.054;10.636;2023-04-15T04:05:51;4.68;;;2.28;;
37203;SDS011;23098;48.054;10.636;2023-04-15T04:08:17;2.72;;;2.00;;
37203;SDS011;23098;48.054;10.636;2023-04-15T04:10:44;5.63;;;2.40;;
37203;SDS011;23098;48.054;10.636;2023-04-15T04:13:11;2.78;;;2.08;;
37203;SDS011;23098;48.054;10.636;2023-04-15T04:15:36;2.75;;;1.98;;
37203;SDS011;23098;48.054;10.636;2023-04-15T04:18:02;4.50;;;2.13;;
37203;SDS011;23098;48.054;10.636;2023-04-15T04:20:27;3.55;;;1.90;;
37203;SDS011;23098;48.054;10.636;2023-04-15T04:22:54;6.40;;;2.13;;
37203;SDS011;23098;48.054;10.636;2023-04-15T04:25:19;3.33;;;2.10;;
37203;SDS011;23098;48.054;10.636;2023-04-15T04:27:45;4.30;;;1.80;;
37203;SDS011;23098;48.054;10.636;2023-04-15T04:30:11;4.10;;;2.28;;
37203;SDS011;23098;48.054;10.636;2023-04-15T04:32:36;7.43;;;2.53;;
37203;SDS011;23098;48.054;10.636;2023-04-15T04:35:02;7.95;;;5.35;;
37203;SDS011;23098;48.054;10.636;2023-04-15T04:37:29;11.85;;;7.32;;
37203;SDS011;23098;48.054;10.636;2023-04-15T04:39:54;19.30;;;10.52;;
37203;SDS011;23098;48.054;10.636;2023-04-15T04:42:20;24.02;;;14.07;;
37203;SDS011;23098;48.054;10.636;2023-04-15T04:44:46;18.23;;;11.48;;
37203;SDS011;23098;48.054;10.636;2023-04-15T04:47:11;17.25;;;9.63;;
37203;SDS011;23098;48.054;10.636;2023-04-15T04:49:37;7.20;;;4.03;;
37203;SDS011;23098;48.054;10.636;2023-04-15T04:52:03;7.68;;;4.47;;
37203;SDS011;23098;48.054;10.636;2023-04-15T04:54:30;8.77;;;3.40;;
37203;SDS011;23098;48.054;10.636;2023-04-15T04:56:55;5.28;;;3.30;;
37203;SDS011;23098;48.054;10.636;2023-04-15T05:01:50;5.15;;;1.70;;
37203;SDS011;23098;48.054;10.636;2023-04-15T05:04:17;4.82;;;1.75;;
37203;SDS011;23098;48.054;10.636;2023-04-15T05:06:42;2.85;;;1.40;;
37203;SDS011;23098;48.054;10.636;2023-04-15T05:09:09;5.30;;;1.70;;
37203;SDS011;23098;48.054;10.636;2023-04-15T05:11:35;5.90;;;2.10;;
37203;SDS011;23098;48.054;10.636;2023-04-15T05:14:00;7.45;;;1.83;;
37203;SDS011;23098;48.054;10.636;2023-04-15T05:16:27;8.13;;;1.60;;
37203;SDS011;23098;48.054;10.636;2023-04-15T05:18:59;2.00;;;1.40;;
37203;SDS011;23098;48.054;10.636;2023-04-15T05:23:51;4.40;;;1.38;;
37203;SDS011;23098;48.054;10.636;2023-04-15T05:26:17;2.90;;;1.10;;
37203;SDS011;23098;48.054;10.636;2023-04-15T05:28:44;4.00;;;1.40;;
37203;SDS011;23098;48.054;10.636;2023-04-15T05:31:10;2.67;;;1.38;;
37203;SDS011;23098;48.054;10.636;2023-04-15T05:33:35;2.80;;;1.55;;
37203;SDS011;23098;48.054;10.636;2023-04-15T05:36:01;4.43;;;1.20;;
37203;SDS011;23098;48.054;10.636;2023-04-15T05:38:26;4.30;;;1.80;;
37203;SDS011;23098;48.054;10.636;2023-04-15T05:40:53;13.90;;;6.03;;
37203;SDS011;23098;48.054;10.636;2023-04-15T05:54:24;4.50;;;1.80;;
37203;SDS011;23098;48.054;10.636;2023-04-15T05:56:52;2.63;;;1.48;;
37203;SDS011;23098;48.054;10.636;2023-04-15T05:59:21;2.33;;;1.65;;
37203;SDS011;23098;48.054;10.636;2023-04-15T06:01:47;3.22;;;1.45;;
37203;SDS011;23098;48.054;10.636;2023-04-15T06:04:12;3.75;;;1.70;;
37203;SDS011;23098;48.054;10.636;2023-04-15T06:06:38;5.55;;;1.60;;
37203;SDS011;23098;48.054;10.636;2023-04-15T06:09:04;5.43;;;1.60;;
37203;SDS011;23098;48.054;10.636;2023-04-15T06:11:30;2.20;;;1.40;;
37203;SDS011;23098;48.054;10.636;2023-04-15T06:13:55;2.83;;;1.88;;
37203;SDS011;23098;48.054;10.636;2023-04-15T06:16:21;4.95;;;1.98;;
37203;SDS011;23098;48.054;10.636;2023-04-15T06:18:47;2.97;;;1.55;;
37203;SDS011;23098;48.054;10.636;2023-04-15T06:21:14;4.07;;;1.48;;
37203;SDS011;23098;48.054;10.636;2023-04-15T06:23:40;4.03;;;1.80;;
37203;SDS011;23098;48.054;10.636;2023-04-15T06:26:06;2.28;;;1.50;;
37203;SDS011;23098;48.054;10.636;2023-04-15T06:28:31;3.53;;;1.48;;
37203;SDS011;23098;48.054;10.636;2023-04-15T06:30:58;2.97;;;1.40;;
37203;SDS011;23098;48.054;10.636;2023-04-15T06:33:24;3.85;;;1.50;;
37203;SDS011;23098;48.054;10.636;2023-04-15T06:35:50;5.40;;;1.60;;
37203;SDS011;23098;48.054;10.636;2023-04-15T06:38:16;3.53;;;1.60;;
37203;SDS011;23098;48.054;10.636;2023-04-15T06:40:42;1.85;;;1.10;;
37203;SDS011;23098;48.054;10.636;2023-04-15T06:43:07;2.58;;;1.50;;
37203;SDS011;23098;48.054;10.636;2023-04-15T06:45:33;3.53;;;1.27;;
37203;SDS011;23098;48.054;10.636;2023-04-15T06:47:59;3.70;;;1.30;;
37203;SDS011;23098;48.054;10.636;2023-04-15T06:50:24;2.20;;;1.27;;
37203;SDS011;23098;48.054;10.636;2023-04-15T06:52:51;3.15;;;1.10;;
37203;SDS011;23098;48.054;10.636;2023-04-15T06:55:18;1.85;;;0.93;;
37203;SDS011;23098;48.054;10.636;2023-04-15T06:57:43;1.50;;;0.70;;
37203;SDS011;23098;48.054;10.636;2023-04-15T07:00:10;2.80;;;1.00;;
37203;SDS011;23098;48.054;10.636;2023-04-15T07:02:36;4.00;;;1.10;;
37203;SDS011;23098;48.054;10.636;2023-04-15T07:05:02;4.80;;;1.17;;
37203;SDS011;23098;48.054;10.636;2023-04-15T07:07:29;2.67;;;1.10;;
37203;SDS011;23098;48.054;10.636;2023-04-15T07:09:55;2.28;;;0.95;;
37203;SDS011;23098;48.054;10.636;2023-04-15T07:12:21;3.13;;;0.93;;
37203;SDS011;23098;48.054;10.636;2023-04-15T07:14:47;3.17;;;1.00;;
37203;SDS011;23098;48.054;10.636;2023-04-15T07:17:13;4.68;;;1.00;;
37203;SDS011;23098;48.054;10.636;2023-04-15T07:19:39;2.45;;;0.75;;
37203;SDS011;23098;48.054;10.636;2023-04-15T07:22:04;3.08;;;0.95;;
37203;SDS011;23098;48.054;10.636;2023-04-15T07:24:30;1.05;;;0.70;;
37203;SDS011;23098;48.054;10.636;2023-04-15T07:26:56;2.35;;;1.02;;
37203;SDS011;23098;48.054;10.636;2023-04-15T07:29:24;3.45;;;1.02;;
37203;SDS011;23098;48.054;10.636;2023-04-15T07:31:51;1.80;;;0.90;;
37203;SDS011;23098;48.054;10.636;2023-04-15T07:34:17;2.10;;;1.48;;
37203;SDS011;23098;48.054;10.636;2023-04-15T07:36:43;3.40;;;0.70;;
37203;SDS011;23098;48.054;10.636;2023-04-15T07:39:10;3.13;;;1.00;;
37203;SDS011;23098;48.054;10.636;2023-04-15T07:41:35;2.65;;;0.60;;
37203;SDS011;23098;48.054;10.636;2023-04-15T07:44:02;2.50;;;0.80;;
37203;SDS011;23098;48.054;10.636;2023-04-15T07:46:28;3.20;;;0.90;;
37203;SDS011;23098;48.054;10.636;2023-04-15T07:48:53;2.20;;;0.90;;
37203;SDS011;23098;48.054;10.636;2023-04-15T07:51:19;1.73;;;1.10;;
37203;SDS011;23098;48.054;10.636;2023-04-15T07:53:46;2.50;;;1.20;;
37203;SDS011;23098;48.054;10.636;2023-04-15T07:56:13;1.20;;;0.85;;
37203;SDS011;23098;48.054;10.636;2023-04-15T07:58:38;2.88;;;1.00;;
37203;SDS011;23098;48.054;10.636;2023-04-15T08:01:04;1.95;;;1.00;;
37203;SDS011;23098;48.054;10.636;2023-04-15T08:03:31;4.35;;;1.13;;
37203;SDS011;23098;48.054;10.636;2023-04-15T08:05:57;5.30;;;1.30;;
37203;SDS011;23098;48.054;10.636;2023-04-15T08:08:23;3.13;;;1.27;;
37203;SDS011;23098;48.054;10.636;2023-04-15T08:10:50;4.63;;;1.25;;
37203;SDS011;23098;48.054;10.636;2023-04-15T08:13:16;2.85;;;0.90;;
37203;SDS011;23098;48.054;10.636;2023-04-15T08:15:42;2.40;;;1.00;;
37203;SDS011;23098;48.054;10.636;2023-04-15T08:18:07;2.00;;;1.00;;
37203;SDS011;23098;48.054;10.636;2023-04-15T08:20:33;1.95;;;0.95;;
37203;SDS011;23098;48.054;10.636;2023-04-15T08:22:59;5.32;;;1.58;;
37203;SDS011;23098;48.054;10.636;2023-04-15T08:25:24;3.58;;;0.98;;
37203;SDS011;23098;48.054;10.636;2023-04-15T08:27:53;3.67;;;1.23;;
37203;SDS011;23098;48.054;10.636;2023-04-15T08:30:19;1.65;;;1.00;;
37203;SDS011;23098;48.054;10.636;2023-04-15T08:32:45;4.15;;;1.60;;
37203;SDS011;23098;48.054;10.636;2023-04-15T08:35:11;7.07;;;1.10;;
37203;SDS011;23098;48.054;10.636;2023-04-15T08:37:37;2.72;;;1.05;;
37203;SDS011;23098;48.054;10.636;2023-04-15T08:40:02;5.07;;;1.45;;
37203;SDS011;23098;48.054;10.636;2023-04-15T08:42:30;4.95;;;1.63;;
37203;SDS011;23098;48.054;10.636;2023-04-15T08:45:00;5.97;;;1.50;;
37203;SDS011;23098;48.054;10.636;2023-04-15T08:47:29;3.25;;;1.40;;
37203;SDS011;23098;48.054;10.636;2023-04-15T08:49:56;2.17;;;1.50;;
37203;SDS011;23098;48.054;10.636;2023-04-15T08:52:23;4.03;;;1.52;;
37203;SDS011;23098;48.054;10.636;2023-04-15T08:54:56;5.90;;;2.20;;
37203;SDS011;23098;48.054;10.636;2023-04-15T08:57:25;4.97;;;1.30;;
37203;SDS011;23098;48.054;10.636;2023-04-15T08:59:51;3.83;;;1.23;;
37203;SDS011;23098;48.054;10.636;2023-04-15T09:02:19;6.97;;;1.92;;
37203;SDS011;23098;48.054;10.636;2023-04-15T09:04:46;5.63;;;1.60;;
37203;SDS011;23098;48.054;10.636;2023-04-15T09:07:11;4.28;;;1.58;;
37203;SDS011;23098;48.054;10.636;2023-04-15T09:09:37;5.75;;;1.73;;
37203;SDS011;23098;48.054;10.636;2023-04-15T09:12:06;5.22;;;1.80;;
37203;SDS011;23098;48.054;10.636;2023-04-15T09:14:35;5.00;;;1.30;;
37203;SDS011;23098;48.054;10.636;2023-04-15T09:17:03;4.35;;;1.75;;
37203;SDS011;23098;48.054;10.636;2023-04-15T09:19:29;4.85;;;1.67;;
37203;SDS011;23098;48.054;10.636;2023-04-15T09:21:56;2.42;;;1.50;;
37203;SDS011;23098;48.054;10.636;2023-04-15T09:24:22;3.92;;;1.70;;
37203;SDS011;23098;48.054;10.636;2023-04-15T09:26:53;3.38;;;1.63;;
37203;SDS011;23098;48.054;10.636;2023-04-15T09:29:19;3.92;;;1.40;;
37203;SDS011;23098;48.054;10.636;2023-04-15T09:31:45;4.50;;;1.67;;
37203;SDS011;23098;48.054;10.636;2023-04-15T09:34:11;3.42;;;1.75;;
37203;SDS011;23098;48.054;10.636;2023-04-15T09:36:53;2.85;;;1.90;;
37203;SDS011;23098;48.054;10.636;2023-04-15T09:39:20;4.35;;;1.80;;
37203;SDS011;23098;48.054;10.636;2023-04-15T09:41:46;4.32;;;1.95;;
37203;SDS011;23098;48.054;10.636;2023-04-15T09:44:33;4.88;;;1.80;;
37203;SDS011;23098;48.054;10.636;2023-04-15T09:46:59;4.30;;;1.70;;
37203;SDS011;23098;48.054;10.636;2023-04-15T09:49:25;3.95;;;1.95;;
37203;SDS011;23098;48.054;10.636;2023-04-15T09:51:53;5.90;;;1.88;;
37203;SDS011;23098;48.054;10.636;2023-04-15T09:54:22;5.35;;;2.13;;
37203;SDS011;23098;48.054;10.636;2023-04-15T09:56:49;5.28;;;2.20;;
37203;SDS011;23098;48.054;10.636;2023-04-15T09:59:14;5.38;;;2.22;;
37203;SDS011;23098;48.054;10.636;2023-04-15T10:01:40;5.00;;;2.13;;
37203;SDS011;23098;48.054;10.636;2023-04-15T10:04:06;4.40;;;2.30;;
37203;SDS011;23098;48.054;10.636;2023-04-15T10:06:33;2.05;;;1.77;;
37203;SDS011;23098;48.054;10.636;2023-04-15T10:08:59;4.47;;;1.95;;
37203;SDS011;23098;48.054;10.636;2023-04-15T10:11:28;4.90;;;2.20;;
37203;SDS011;23098;48.054;10.636;2023-04-15T10:13:56;4.32;;;2.13;;
37203;SDS011;23098;48.054;10.636;2023-04-15T10:16:22;4.25;;;2.22;;
37203;SDS011;23098;48.054;10.636;2023-04-15T10:18:53;5.47;;;2.88;;
37203;SDS011;23098;48.054;10.636;2023-04-15T10:23:51;7.75;;;2.67;;
37203;SDS011;23098;48.054;10.636;2023-04-15T10:26:17;5.18;;;2.17;;
37203;SDS011;23098;48.054;10.636;2023-04-15T10:28:43;6.85;;;2.70;;
37203;SDS011;23098;48.054;10.636;2023-04-15T10:31:11;6.50;;;2.40;;
37203;SDS011;23098;48.054;10.636;2023-04-15T10:33:40;5.55;;;2.35;;
37203;SDS011;23098;48.054;10.636;2023-04-15T10:36:08;4.70;;;2.72;;
37203;SDS011;23098;48.054;10.636;2023-04-15T10:38:35;5.95;;;2.38;;
37203;SDS011;23098;48.054;10.636;2023-04-15T10:43:53;4.63;;;2.47;;
37203;SDS011;23098;48.054;10.636;2023-04-15T10:46:20;3.20;;;2.17;;
37203;SDS011;23098;48.054;10.636;2023-04-15T10:51:37;6.03;;;2.63;;
37203;SDS011;23098;48.054;10.636;2023-04-15T10:54:14;3.35;;;2.50;;
37203;SDS011;23098;48.054;10.636;2023-04-15T10:57:05;3.83;;;2.45;;
37203;SDS011;23098;48.054;10.636;2023-04-15T11:00:15;6.10;;;2.25;;
37203;SDS011;23098;48.054;10.636;2023-04-15T11:02:23;5.28;;;2.70;;
37203;SDS011;23098;48.054;10.636;2023-04-15T11:05:05;3.90;;;2.58;;
37203;SDS011;23098;48.054;10.636;2023-04-15T11:12:38;4.32;;;2.50;;
37203;SDS011;23098;48.054;10.636;2023-04-15T11:17:51;4.10;;;2.40;;
37203;SDS011;23098;48.054;10.636;2023-04-15T11:20:17;3.47;;;2.13;;
37203;SDS011;23098;48.054;10.636;2023-04-15T11:22:50;3.42;;;2.35;;
37203;SDS011;23098;48.054;10.636;2023-04-15T11:25:39;6.20;;;2.40;;
37203;SDS011;23098;48.054;10.636;2023-04-15T11:28:03;4.13;;;2.65;;
37203;SDS011;23098;48.054;10.636;2023-04-15T11:30:30;5.88;;;2.40;;
37203;SDS011;23098;48.054;10.636;2023-04-15T11:33:00;5.95;;;2.47;;
37203;SDS011;23098;48.054;10.636;2023-04-15T11:35:28;6.70;;;2.55;;
37203;SDS011;23098;48.054;10.636;2023-04-15T11:37:54;5.95;;;3.00;;
37203;SDS011;23098;48.054;10.636;2023-04-15T11:40:23;5.43;;;2.67;;
37203;SDS011;23098;48.054;10.636;2023-04-15T11:45:35;5.35;;;3.53;;
37203;SDS011;23098;48.054;10.636;2023-04-15T11:50:34;5.28;;;3.45;;
37203;SDS011;23098;48.054;10.636;2023-04-15T11:53:02;4.38;;;3.47;;
37203;SDS011;23098;48.054;10.636;2023-04-15T11:55:28;5.85;;;4.10;;
37203;SDS011;23098;48.054;10.636;2023-04-15T11:58:08;5.78;;;3.30;;
37203;SDS011;23098;48.054;10.636;2023-04-15T12:00:44;5.63;;;3.72;;
37203;SDS011;23098;48.054;10.636;2023-04-15T12:03:23;7.35;;;4.18;;
37203;SDS011;23098;48.054;10.636;2023-04-15T12:11:49;5.68;;;4.43;;
37203;SDS011;23098;48.054;10.636;2023-04-15T12:14:19;8.00;;;4.68;;
37203;SDS011;23098;48.054;10.636;2023-04-15T12:16:53;9.80;;;5.10;;
37203;SDS011;23098;48.054;10.636;2023-04-15T12:19:28;7.50;;;4.85;;
37203;SDS011;23098;48.054;10.636;2023-04-15T12:22:02;7.88;;;4.78;;
37203;SDS011;23098;48.054;10.636;2023-04-15T12:24:31;6.78;;;4.05;;
37203;SDS011;23098;48.054;10.636;2023-04-15T12:27:00;7.10;;;3.63;;
37203;SDS011;23098;48.054;10.636;2023-04-15T12:29:28;4.28;;;3.35;;
37203;SDS011;23098;48.054;10.636;2023-04-15T12:31:58;5.00;;;3.38;;
37203;SDS011;23098;48.054;10.636;2023-04-15T12:34:41;6.10;;;3.70;;
37203;SDS011;23098;48.054;10.636;2023-04-15T12:37:09;6.10;;;3.72;;
37203;SDS011;23098;48.054;10.636;2023-04-15T12:39:37;6.53;;;3.85;;
37203;SDS011;23098;48.054;10.636;2023-04-15T12:42:04;6.75;;;3.80;;
37203;SDS011;23098;48.054;10.636;2023-04-15T12:44:30;4.93;;;3.13;;
37203;SDS011;23098;48.054;10.636;2023-04-15T12:46:57;3.10;;;2.67;;
37203;SDS011;23098;48.054;10.636;2023-04-15T12:49:24;3.55;;;2.88;;
37203;SDS011;23098;48.054;10.636;2023-04-15T12:51:52;6.63;;;2.65;;
37203;SDS011;23098;48.054;10.636;2023-04-15T12:54:19;4.88;;;2.70;;
37203;SDS011;23098;48.054;10.636;2023-04-15T12:56:45;4.25;;;2.70;;
37203;SDS011;23098;48.054;10.636;2023-04-15T12:59:12;7.35;;;2.75;;
37203;SDS011;23098;48.054;10.636;2023-04-15T13:01:38;6.45;;;2.50;;
37203;SDS011;23098;48.054;10.636;2023-04-15T13:04:04;6.07;;;2.80;;
37203;SDS011;23098;48.054;10.636;2023-04-15T13:06:30;4.85;;;2.70;;
37203;SDS011;23098;48.054;10.636;2023-04-15T13:09:07;5.15;;;2.83;;
37203;SDS011;23098;48.054;10.636;2023-04-15T13:11:33;5.53;;;2.72;;
37203;SDS011;23098;48.054;10.636;2023-04-15T13:13:59;6.55;;;3.13;;
37203;SDS011;23098;48.054;10.636;2023-04-15T13:16:26;7.80;;;3.10;;
37203;SDS011;23098;48.054;10.636;2023-04-15T13:18:51;4.57;;;3.20;;
37203;SDS011;23098;48.054;10.636;2023-04-15T13:21:17;6.97;;;3.42;;
37203;SDS011;23098;48.054;10.636;2023-04-15T13:23:43;12.63;;;5.95;;
37203;SDS011;23098;48.054;10.636;2023-04-15T13:26:09;6.53;;;4.20;;
37203;SDS011;23098;48.054;10.636;2023-04-15T13:28:35;13.88;;;7.93;;
37203;SDS011;23098;48.054;10.636;2023-04-15T13:31:01;9.32;;;5.03;;
37203;SDS011;23098;48.054;10.636;2023-04-15T13:33:26;7.93;;;5.65;;
37203;SDS011;23098;48.054;10.636;2023-04-15T13:35:52;7.75;;;4.72;;
37203;SDS011;23098;48.054;10.636;2023-04-15T13:38:18;6.97;;;5.10;;
37203;SDS011;23098;48.054;10.636;2023-04-15T13:40:43;7.18;;;5.20;;
37203;SDS011;23098;48.054;10.636;2023-04-15T13:43:09;9.00;;;6.38;;
37203;SDS011;23098;48.054;10.636;2023-04-15T13:45:35;8.75;;;5.65;;
37203;SDS011;23098;48.054;10.636;2023-04-15T13:48:01;8.70;;;4.95;;
37203;SDS011;23098;48.054;10.636;2023-04-15T13:50:26;9.75;;;5.00;;
37203;SDS011;23098;48.054;10.636;2023-04-15T13:52:52;9.55;;;4.40;;
37203;SDS011;23098;48.054;10.636;2023-04-15T13:55:18;6.35;;;4.10;;
37203;SDS011;23098;48.054;10.636;2023-04-15T13:57:44;7.53;;;4.60;;
37203;SDS011;23098;48.054;10.636;2023-04-15T14:00:10;5.95;;;3.95;;
37203;SDS011;23098;48.054;10.636;2023-04-15T14:02:36;6.68;;;4.35;;
37203;SDS011;23098;48.054;10.636;2023-04-15T14:05:01;7.18;;;4.22;;
37203;SDS011;23098;48.054;10.636;2023-04-15T14:07:29;5.63;;;4.22;;
37203;SDS011;23098;48.054;10.636;2023-04-15T14:09:55;7.45;;;4.93;;
37203;SDS011;23098;48.054;10.636;2023-04-15T14:12:21;8.05;;;4.28;;
37203;SDS011;23098;48.054;10.636;2023-04-15T14:14:46;6.03;;;4.05;;
37203;SDS011;23098;48.054;10.636;2023-04-15T14:17:12;6.75;;;4.20;;
37203;SDS011;23098;48.054;10.636;2023-04-15T14:19:37;7.65;;;4.90;;
37203;SDS011;23098;48.054;10.636;2023-04-15T14:22:03;5.80;;;4.03;;
37203;SDS011;23098;48.054;10.636;2023-04-15T14:24:29;8.95;;;4.30;;
37203;SDS011;23098;48.054;10.636;2023-04-15T14:26:54;5.63;;;4.03;;
37203;SDS011;23098;48.054;10.636;2023-04-15T14:29:21;5.47;;;4.10;;
37203;SDS011;23098;48.054;10.636;2023-04-15T14:31:47;6.00;;;3.67;;
37203;SDS011;23098;48.054;10.636;2023-04-15T14:34:13;6.07;;;4.30;;
37203;SDS011;23098;48.054;10.636;2023-04-15T14:36:49;7.75;;;4.25;;
37203;SDS011;23098;48.054;10.636;2023-04-15T14:39:16;7.60;;;4.35;;
37203;SDS011;23098;48.054;10.636;2023-04-15T14:41:42;6.97;;;4.47;;
37203;SDS011;23098;48.054;10.636;2023-04-15T14:44:07;6.80;;;4.40;;
37203;SDS011;23098;48.054;10.636;2023-04-15T14:46:35;6.65;;;4.10;;
37203;SDS011;23098;48.054;10.636;2023-04-15T14:49:01;5.32;;;4.30;;
37203;SDS011;23098;48.054;10.636;2023-04-15T14:51:27;7.20;;;4.07;;
37203;SDS011;23098;48.054;10.636;2023-04-15T14:53:52;7.30;;;4.43;;
37203;SDS011;23098;48.054;10.636;2023-04-15T14:56:18;8.13;;;4.60;;
37203;SDS011;23098;48.054;10.636;2023-04-15T14:58:43;5.38;;;4.45;;
37203;SDS011;23098;48.054;10.636;2023-04-15T15:01:09;7.50;;;4.95;;
37203;SDS011;23098;48.054;10.636;2023-04-15T15:03:34;8.50;;;4.60;;
37203;SDS011;23098;48.054;10.636;2023-04-15T15:06:00;7.22;;;5.03;;
37203;SDS011;23098;48.054;10.636;2023-04-15T15:08:26;6.72;;;4.20;;
37203;SDS011;23098;48.054;10.636;2023-04-15T15:10:51;6.45;;;4.90;;
37203;SDS011;23098;48.054;10.636;2023-04-15T15:13:18;7.65;;;4.72;;
37203;SDS011;23098;48.054;10.636;2023-04-15T15:15:43;11.68;;;5.38;;
37203;SDS011;23098;48.054;10.636;2023-04-15T15:18:09;6.72;;;4.35;;